createdAt,value
2023-04-27T00:01:28.674Z,99.90
2023-04-27T00:06:38.732Z,99.90
2023-04-27T00:11:44.717Z,99.90
2023-04-27T00:16:51.797Z,99.90
2023-04-27T00:22:00.459Z,99.90
2023-04-27T00:27:05.909Z,99.90
2023-04-27T00:32:08.640Z,99.90
2023-04-27T00:37:14.032Z,99.90
2023-04-27T00:42:19.640Z,99.90
2023-04-27T00:47:25.196Z,99.90
2023-04-27T00:52:52.492Z,99.90
2023-04-27T00:58:24.308Z,99.90
2023-04-27T01:03:35.874Z,99.90
2023-04-27T01:09:05.565Z,99.90
2023-04-27T01:14:21.269Z,99.90
2023-04-27T01:20:17.183Z,99.90
2023-04-27T01:25:24.824Z,99.90
2023-04-27T01:30:28.756Z,99.90
2023-04-27T01:35:31.810Z,99.90
2023-04-27T01:40:34.012Z,99.90
2023-04-27T01:45:37.442Z,99.90
2023-04-27T01:50:39.550Z,99.90
2023-04-27T01:55:43.334Z,99.90
2023-04-27T02:00:45.503Z,99.90
2023-04-27T02:05:48.212Z,99.90
2023-04-27T02:10:50.492Z,99.90
2023-04-27T04:55:49.028Z,99.90
2023-04-27T05:00:51.087Z,99.90
2023-04-27T05:05:53.005Z,99.90
2023-04-27T05:10:55.112Z,99.90
2023-04-27T05:15:57.122Z,99.90
2023-04-27T05:20:59.002Z,99.90
2023-04-27T05:26:00.861Z,99.90
2023-04-27T05:31:02.734Z,99.90
2023-04-27T05:36:04.994Z,99.90
2023-04-27T05:41:06.891Z,99.90
2023-04-27T05:46:08.805Z,99.90
2023-04-27T05:51:11.024Z,99.90
2023-04-27T05:56:13.525Z,99.90
2023-04-27T06:01:15.417Z,99.90
2023-04-27T06:06:17.293Z,99.90
2023-04-27T06:11:19.376Z,99.90
2023-04-27T06:16:21.518Z,99.90
2023-04-27T06:21:23.533Z,99.90
2023-04-27T06:26:25.445Z,99.90
2023-04-27T06:31:27.789Z,99.90
2023-04-27T06:36:29.744Z,99.90
2023-04-27T06:41:31.546Z,99.90
2023-04-27T06:46:33.586Z,99.90
2023-04-27T06:51:35.767Z,99.90
2023-04-27T06:56:37.672Z,99.90
2023-04-27T07:01:39.955Z,99.90
2023-04-27T07:06:41.892Z,99.90
2023-04-27T07:11:43.766Z,99.90
2023-04-27T07:16:45.780Z,99.90
2023-04-27T07:21:48.180Z,99.90
2023-04-27T07:26:50.050Z,99.90
2023-04-27T07:31:53.017Z,99.90
2023-04-27T07:36:54.938Z,99.90
2023-04-27T07:41:58.290Z,99.90
2023-04-27T07:47:00.116Z,99.90
2023-04-27T07:52:02.093Z,99.90
2023-04-27T07:57:13.374Z,99.90
2023-04-27T08:07:20.173Z,99.90
2023-04-27T08:12:22.094Z,99.90
2023-04-27T08:17:24.057Z,99.90
2023-04-27T08:22:25.919Z,99.90
2023-04-27T08:27:27.971Z,99.90
2023-04-27T08:32:29.851Z,99.90
2023-04-27T08:37:32.355Z,99.90
2023-04-27T08:42:34.207Z,99.90
2023-04-27T08:47:42.560Z,99.90
2023-04-27T08:52:48.446Z,99.90
2023-04-27T08:58:01.288Z,99.90
2023-04-27T09:03:04.327Z,99.90
2023-04-27T09:08:08.390Z,99.90
2023-04-27T09:13:12.205Z,99.90
2023-04-27T09:18:21.667Z,97.90
2023-04-27T09:23:41.797Z,95.50
2023-04-27T09:28:48.763Z,96.00
2023-04-27T09:33:55.561Z,95.40
2023-04-27T09:38:58.018Z,91.50
2023-04-27T09:44:00.267Z,83.50
2023-04-27T09:49:04.916Z,83.50
2023-04-27T09:54:08.220Z,79.20
2023-04-27T09:59:28.408Z,79.30
2023-04-27T10:04:33.709Z,74.70
2023-04-27T10:09:37.966Z,74.30
2023-04-27T10:14:57.371Z,71.60
2023-04-27T10:20:09.841Z,74.00
2023-04-27T10:25:16.820Z,73.30
2023-04-27T10:30:20.019Z,71.00
2023-04-27T10:35:37.560Z,67.70
2023-04-27T10:40:39.829Z,63.00
2023-04-27T10:45:43.188Z,65.60
2023-04-27T10:50:46.716Z,60.70
2023-04-27T10:55:55.829Z,61.70
2023-04-27T11:00:57.777Z,60.80
2023-04-27T11:06:02.196Z,61.30
2023-04-27T11:11:06.107Z,62.10
2023-04-27T11:16:08.313Z,55.50
2023-04-27T11:21:11.539Z,55.20
2023-04-27T11:26:17.289Z,53.30
2023-04-27T11:31:19.555Z,52.40
2023-04-27T11:36:23.785Z,61.20
2023-04-27T11:41:37.995Z,54.70
2023-04-27T11:46:41.436Z,49.80
2023-04-27T11:51:46.498Z,46.70
2023-04-27T11:56:48.420Z,42.90
2023-04-27T12:01:51.691Z,43.60
2023-04-27T12:06:53.653Z,46.00
2023-04-27T12:11:56.267Z,42.20
2023-04-27T12:16:58.135Z,43.40
2023-04-27T12:22:00.014Z,44.60
2023-04-27T12:27:03.317Z,44.10
2023-04-27T12:32:06.064Z,45.70
2023-04-27T12:37:07.891Z,45.10
2023-04-27T12:42:09.779Z,42.30
2023-04-27T12:47:20.089Z,40.50
2023-04-27T12:52:29.878Z,40.90
2023-04-27T12:57:32.017Z,41.60
2023-04-27T13:02:35.067Z,40.40
2023-04-27T13:07:37.117Z,39.40
2023-04-27T13:12:39.128Z,38.60
2023-04-27T13:17:43.137Z,38.60
2023-04-27T13:22:45.840Z,36.80
2023-04-27T13:27:47.900Z,39.50
2023-04-27T13:32:49.790Z,36.80
2023-04-27T13:37:53.870Z,36.60
2023-04-27T13:42:55.766Z,35.40
2023-04-27T13:47:58.105Z,37.70
2023-04-27T13:53:01.874Z,37.10
2023-04-27T13:58:03.881Z,37.00
2023-04-27T14:03:06.389Z,38.30
2023-04-27T14:08:08.455Z,38.00
2023-04-27T14:13:10.489Z,39.00
2023-04-27T14:18:12.401Z,37.20
2023-04-27T14:23:14.260Z,38.50
2023-04-27T14:28:16.194Z,40.10
2023-04-27T14:33:18.221Z,37.40
2023-04-27T14:38:20.149Z,37.20
2023-04-27T14:43:22.009Z,37.90
2023-04-27T14:48:23.897Z,36.90
2023-04-27T14:53:25.839Z,37.40
2023-04-27T14:58:27.767Z,36.70
2023-04-27T15:03:32.850Z,38.40
2023-04-27T15:08:34.979Z,38.90
2023-04-27T15:13:36.964Z,38.50
2023-04-27T15:18:38.772Z,39.10
2023-04-27T15:23:40.764Z,38.60
2023-04-27T15:28:42.603Z,38.80
2023-04-27T15:33:44.528Z,40.10
2023-04-27T15:38:46.780Z,38.40
2023-04-27T15:43:48.684Z,38.60
2023-04-27T15:48:50.573Z,40.70
2023-04-27T15:53:52.556Z,40.90
2023-04-27T15:58:54.570Z,39.90
2023-04-27T16:03:56.832Z,39.30
2023-04-27T16:08:59.086Z,39.80
2023-04-27T16:14:00.956Z,39.80
2023-04-27T16:19:02.811Z,41.30
2023-04-27T16:24:04.836Z,40.40
2023-04-27T16:29:07.150Z,40.90
2023-04-27T16:34:09.000Z,40.20
2023-04-27T16:39:10.935Z,40.60
2023-04-27T16:44:13.331Z,41.00
2023-04-27T16:49:15.629Z,41.40
2023-04-27T16:54:18.145Z,43.20
2023-04-27T16:59:19.950Z,42.30
2023-04-27T17:04:21.853Z,42.70
2023-04-27T17:09:23.777Z,42.40
2023-04-27T17:14:25.742Z,43.30
2023-04-27T17:19:28.636Z,43.50
2023-04-27T17:24:30.700Z,43.40
2023-04-27T17:29:32.576Z,44.00
2023-04-27T17:34:34.419Z,44.20
2023-04-27T17:39:36.436Z,43.80
2023-04-27T17:44:42.481Z,44.20
2023-04-27T17:49:44.426Z,45.00
2023-04-27T17:54:46.806Z,44.90
2023-04-27T17:59:50.040Z,45.50
2023-04-27T18:04:52.880Z,45.70
2023-04-27T18:09:56.599Z,46.40
2023-04-27T18:14:59.367Z,46.20
2023-04-27T18:20:09.379Z,47.60
2023-04-27T18:25:11.883Z,48.60
2023-04-27T18:30:14.064Z,49.10
2023-04-27T18:35:16.005Z,49.70
2023-04-27T18:40:22.052Z,49.80
2023-04-27T18:45:24.158Z,50.30
2023-04-27T18:50:26.671Z,51.20
2023-04-27T18:55:28.552Z,51.10
2023-04-27T19:00:31.128Z,51.60
2023-04-27T19:05:33.199Z,51.80
2023-04-27T19:10:35.248Z,51.60
2023-04-27T19:15:37.132Z,51.50
